createdAt,value
2023-01-03T00:02:08.999Z,16.05
2023-01-03T00:04:35.549Z,18.70
2023-01-03T00:07:02.039Z,20.58
2023-01-03T00:09:28.396Z,15.07
2023-01-03T00:12:13.499Z,16.88
2023-01-03T00:14:41.973Z,20.10
2023-01-03T00:17:09.232Z,15.50
2023-01-03T00:19:40.046Z,14.75
2023-01-03T00:22:06.533Z,18.60
2023-01-03T00:24:33.038Z,17.35
2023-01-03T00:26:59.647Z,17.73
2023-01-03T00:29:26.293Z,17.83
2023-01-03T00:31:52.707Z,14.80
2023-01-03T00:34:19.060Z,20.10
2023-01-03T00:36:45.430Z,15.57
2023-01-03T00:39:12.065Z,19.75
2023-01-03T00:41:38.888Z,15.77
2023-01-03T00:44:05.927Z,16.35
2023-01-03T00:46:32.860Z,16.98
2023-01-03T00:48:59.348Z,16.70
2023-01-03T00:51:28.095Z,18.80
2023-01-03T00:53:56.253Z,18.90
2023-01-03T00:56:25.783Z,17.75
2023-01-03T00:58:52.420Z,19.73
2023-01-03T01:01:24.284Z,18.60
2023-01-03T01:03:56.010Z,19.88
2023-01-03T01:06:25.173Z,21.35
2023-01-03T01:08:53.420Z,20.15
2023-01-03T01:11:19.899Z,20.98
2023-01-03T01:13:47.152Z,20.55
2023-01-03T01:16:15.774Z,26.50
2023-01-03T01:18:43.941Z,22.15
2023-01-03T01:21:16.052Z,22.63
2023-01-03T01:23:42.589Z,20.27
2023-01-03T01:26:14.537Z,20.55
2023-01-03T01:28:41.633Z,21.58
2023-01-03T01:31:08.727Z,21.95
2023-01-03T01:33:36.594Z,22.75
2023-01-03T01:36:12.571Z,26.88
2023-01-03T01:38:38.970Z,22.33
2023-01-03T01:41:05.450Z,25.50
2023-01-03T01:43:50.428Z,23.23
2023-01-03T01:46:25.179Z,23.52
2023-01-03T01:48:59.817Z,20.58
2023-01-03T01:51:28.256Z,21.75
2023-01-03T01:53:55.922Z,25.30
2023-01-03T01:56:33.148Z,25.50
2023-01-03T01:58:59.581Z,24.08
2023-01-03T02:01:26.326Z,27.45
2023-01-03T02:03:56.609Z,26.65
2023-01-03T02:06:24.060Z,25.67
2023-01-03T02:08:50.703Z,25.30
2023-01-03T02:11:28.266Z,26.70
2023-01-03T02:14:32.257Z,25.38
2023-01-03T02:17:23.907Z,27.88
2023-01-03T02:20:30.213Z,30.27
2023-01-03T02:23:21.275Z,28.58
2023-01-03T02:26:15.631Z,31.98
2023-01-03T02:29:00.681Z,33.25
2023-01-03T02:31:32.729Z,34.50
2023-01-03T02:34:03.757Z,34.47
2023-01-03T02:36:45.202Z,33.63
2023-01-03T02:39:23.933Z,32.55
2023-01-03T02:42:19.296Z,31.60
2023-01-03T02:45:05.126Z,33.80
2023-01-03T02:47:37.971Z,28.67
2023-01-03T02:50:06.357Z,33.85
2023-01-03T02:52:32.798Z,31.63
2023-01-03T02:55:10.788Z,34.33
2023-01-03T02:57:58.608Z,34.78
2023-01-03T03:00:27.868Z,30.83
2023-01-03T03:02:58.277Z,37.40
2023-01-03T03:05:28.311Z,35.47
2023-01-03T03:07:54.685Z,36.30
2023-01-03T03:10:40.263Z,42.10
2023-01-03T03:13:46.408Z,39.85
2023-01-03T03:16:40.471Z,40.00
2023-01-03T03:19:52.930Z,39.67
2023-01-03T03:23:00.871Z,38.72
2023-01-03T03:25:45.657Z,39.60
2023-01-03T03:28:36.252Z,35.90
2023-01-03T03:31:08.212Z,37.75
2023-01-03T03:33:39.889Z,36.17
2023-01-03T03:36:14.201Z,32.67
2023-01-03T03:38:43.120Z,33.22
2023-01-03T03:41:39.832Z,31.27
2023-01-03T03:44:48.355Z,27.33
2023-01-03T03:47:30.547Z,27.02
2023-01-03T03:50:02.971Z,26.13
2023-01-03T03:52:31.197Z,26.73
2023-01-03T03:55:05.663Z,27.55
2023-01-03T03:57:44.516Z,28.70
2023-01-03T04:00:16.358Z,31.23
2023-01-03T04:02:43.620Z,30.05
2023-01-03T04:05:11.594Z,31.25
2023-01-03T04:07:38.117Z,33.70
2023-01-03T04:10:04.886Z,30.20
2023-01-03T04:12:31.283Z,35.33
2023-01-03T04:14:57.925Z,32.50
2023-01-03T04:17:24.341Z,37.05
2023-01-03T04:19:50.779Z,33.38
2023-01-03T04:22:17.207Z,32.83
2023-01-03T04:24:43.600Z,39.17
2023-01-03T04:27:09.988Z,35.05
2023-01-03T04:29:39.432Z,33.58
2023-01-03T04:32:06.746Z,33.60
2023-01-03T04:34:33.208Z,32.30
2023-01-03T04:36:59.591Z,31.63
2023-01-03T04:39:25.968Z,32.83
2023-01-03T04:41:52.355Z,30.77
2023-01-03T04:44:18.739Z,29.85
2023-01-03T04:46:50.650Z,29.70
2023-01-03T04:49:19.561Z,28.17
2023-01-03T04:51:45.920Z,27.73
2023-01-03T04:54:12.293Z,29.27
2023-01-03T04:56:38.753Z,30.63
2023-01-03T04:59:05.328Z,28.30
2023-01-03T05:01:31.872Z,28.77
2023-01-03T05:03:59.965Z,31.15
2023-01-03T05:06:27.230Z,29.88
2023-01-03T05:08:53.756Z,32.78
2023-01-03T05:11:20.350Z,33.70
2023-01-03T05:13:46.788Z,31.60
2023-01-03T05:16:14.571Z,31.42
2023-01-03T05:18:42.478Z,35.53
2023-01-03T05:21:36.100Z,38.15
2023-01-03T05:24:21.094Z,33.28
2023-01-03T05:26:47.825Z,33.13
2023-01-03T05:29:16.796Z,38.40
2023-01-03T05:31:43.371Z,35.38
2023-01-03T05:34:09.885Z,37.30
2023-01-03T05:36:36.313Z,36.03
2023-01-03T05:39:03.820Z,44.50
2023-01-03T05:41:48.911Z,40.67
2023-01-03T05:44:15.470Z,40.70
2023-01-03T05:46:41.888Z,42.55
2023-01-03T05:49:08.252Z,38.80
2023-01-03T05:51:34.699Z,41.22
2023-01-03T05:54:01.083Z,43.90
2023-01-03T05:56:27.495Z,42.70
2023-01-03T05:58:54.175Z,49.60
2023-01-03T06:01:20.677Z,42.67
2023-01-03T06:03:47.828Z,47.65
2023-01-03T06:06:15.420Z,44.05
2023-01-03T06:08:41.886Z,46.42
2023-01-03T06:11:10.083Z,51.58
2023-01-03T06:13:36.940Z,46.95
2023-01-03T06:16:24.969Z,50.80
2023-01-03T06:18:51.643Z,49.42
2023-01-03T06:21:18.467Z,53.33
2023-01-03T06:23:47.776Z,51.55
2023-01-03T06:26:15.523Z,52.97
2023-01-03T06:28:42.209Z,49.35
2023-01-03T06:31:09.347Z,49.80
2023-01-03T06:33:35.798Z,50.00
2023-01-03T06:36:05.998Z,45.42
2023-01-03T06:38:32.364Z,44.00
2023-01-03T06:40:58.924Z,42.40
2023-01-03T06:43:25.488Z,42.47
2023-01-03T06:46:12.706Z,42.55
2023-01-03T06:48:57.748Z,42.00
2023-01-03T06:51:43.306Z,40.75
2023-01-03T06:54:13.155Z,38.40
2023-01-03T06:56:39.571Z,38.63
2023-01-03T06:59:05.965Z,39.88
2023-01-03T07:01:32.420Z,45.25
2023-01-03T07:03:58.865Z,39.88
2023-01-03T07:06:25.466Z,44.10
2023-01-03T07:08:52.064Z,41.88
2023-01-03T07:11:18.697Z,40.25
2023-01-03T07:14:00.298Z,47.35
2023-01-03T07:16:32.413Z,44.55
2023-01-03T07:18:59.080Z,43.95
2023-01-03T07:21:27.608Z,42.10
2023-01-03T07:23:55.268Z,43.28
2023-01-03T07:26:24.192Z,43.33
2023-01-03T07:28:53.790Z,43.10
2023-01-03T07:31:20.209Z,40.45
2023-01-03T07:33:46.681Z,45.65
2023-01-03T07:36:14.687Z,51.10
2023-01-03T07:38:43.334Z,47.60
2023-01-03T07:41:10.865Z,54.25
2023-01-03T07:43:39.699Z,51.08
2023-01-03T07:46:07.274Z,51.95
2023-01-03T07:48:34.579Z,51.58
2023-01-03T07:51:01.348Z,51.30
2023-01-03T07:53:28.469Z,57.10
2023-01-03T07:55:55.154Z,51.95
2023-01-03T07:58:21.582Z,55.55
2023-01-03T08:00:48.064Z,49.22
2023-01-03T08:03:15.593Z,56.15
2023-01-03T08:05:42.058Z,54.17
2023-01-03T08:08:09.088Z,57.45
2023-01-03T08:10:54.121Z,53.78
2023-01-03T08:13:20.677Z,56.35
2023-01-03T08:15:52.333Z,55.50
2023-01-03T08:18:26.864Z,56.88
2023-01-03T08:20:55.279Z,57.10
2023-01-03T08:23:23.196Z,56.42
2023-01-03T08:25:49.758Z,59.40
2023-01-03T08:28:16.174Z,64.75
2023-01-03T08:30:49.499Z,60.80
2023-01-03T08:33:17.459Z,59.97
2023-01-03T08:35:47.038Z,61.25
2023-01-03T08:38:16.620Z,59.50
2023-01-03T08:40:44.459Z,58.55
2023-01-03T08:43:12.440Z,59.40
2023-01-03T08:45:39.025Z,54.63
2023-01-03T08:48:06.268Z,58.35
2023-01-03T08:50:32.748Z,55.20
2023-01-03T08:52:59.674Z,55.80
2023-01-03T08:55:26.092Z,51.30
2023-01-03T08:57:52.500Z,50.40
2023-01-03T09:00:19.112Z,51.35
2023-01-03T09:02:45.805Z,51.03
2023-01-03T09:05:12.333Z,44.20
2023-01-03T09:07:38.788Z,47.88
2023-01-03T09:10:05.636Z,47.53
2023-01-03T09:12:32.088Z,41.47
2023-01-03T09:14:58.464Z,38.50
2023-01-03T09:17:24.891Z,42.88
2023-01-03T09:19:51.271Z,46.58
2023-01-03T09:22:17.672Z,45.08
2023-01-03T09:24:44.134Z,45.58
2023-01-03T09:27:10.643Z,39.78
2023-01-03T09:29:37.031Z,42.80
2023-01-03T09:32:03.819Z,37.45
2023-01-03T09:34:30.308Z,38.42
2023-01-03T09:36:56.762Z,39.30
2023-01-03T09:39:23.153Z,37.40
2023-01-03T09:42:09.784Z,40.00
2023-01-03T09:44:36.316Z,34.45
2023-01-03T09:47:03.541Z,39.28
2023-01-03T09:49:30.134Z,40.90
2023-01-03T09:52:14.928Z,40.40
2023-01-03T09:55:01.776Z,34.40
2023-01-03T09:57:51.293Z,36.03
2023-01-03T10:00:49.409Z,36.67
2023-01-03T10:03:50.175Z,36.55
2023-01-03T10:06:27.687Z,34.13
2023-01-03T10:09:16.489Z,30.95
2023-01-03T10:11:55.505Z,30.65
2023-01-03T10:14:30.997Z,26.85
2023-01-03T10:17:06.409Z,27.30
2023-01-03T10:19:58.548Z,25.48
2023-01-03T10:22:27.424Z,27.42
2023-01-03T10:25:08.333Z,24.10
2023-01-03T10:27:37.628Z,28.40
2023-01-03T10:30:06.537Z,27.08
2023-01-03T10:32:49.621Z,24.75
2023-01-03T10:35:17.650Z,21.05
2023-01-03T10:37:44.804Z,24.67
2023-01-03T10:40:12.804Z,20.98
2023-01-03T10:42:40.227Z,21.45
2023-01-03T10:45:12.060Z,21.17
2023-01-03T10:47:38.516Z,19.83
2023-01-03T10:50:06.613Z,17.42
2023-01-03T10:52:40.751Z,17.27
2023-01-03T10:55:15.710Z,18.50
2023-01-03T10:57:46.136Z,16.42
2023-01-03T11:00:32.733Z,17.13
2023-01-03T11:03:10.145Z,14.68
2023-01-03T11:05:37.659Z,23.45
2023-01-03T11:08:05.894Z,16.65
2023-01-03T11:10:37.662Z,14.07
2023-01-03T11:13:21.660Z,15.10
2023-01-03T11:15:56.771Z,13.70
2023-01-03T11:18:23.768Z,16.42
2023-01-03T11:21:16.437Z,15.75
2023-01-03T11:24:01.659Z,14.52
2023-01-03T11:27:06.589Z,13.32
2023-01-03T11:29:36.018Z,10.65
2023-01-03T11:32:29.304Z,9.93
2023-01-03T11:35:23.270Z,10.32
2023-01-03T11:38:13.564Z,11.50
2023-01-03T11:41:03.753Z,13.07
2023-01-03T11:43:37.845Z,10.40
2023-01-03T11:46:10.240Z,11.73
2023-01-03T11:48:52.745Z,12.73
2023-01-03T11:51:30.168Z,11.65
2023-01-03T11:54:03.252Z,10.85
2023-01-03T11:56:49.866Z,9.70
2023-01-03T11:59:43.377Z,8.40
2023-01-03T12:02:28.674Z,9.63
2023-01-03T12:05:31.051Z,13.60
2023-01-03T12:08:03.333Z,11.57
2023-01-03T12:10:40.525Z,14.52
2023-01-03T12:13:32.028Z,11.65
2023-01-03T12:16:08.735Z,9.68
2023-01-03T12:18:49.829Z,14.38
2023-01-03T12:21:36.639Z,9.10
2023-01-03T12:24:15.158Z,9.80
2023-01-03T12:26:43.145Z,9.25
2023-01-03T12:29:18.608Z,10.18
2023-01-03T12:31:52.619Z,10.90
2023-01-03T12:34:26.277Z,9.13
2023-01-03T12:37:22.198Z,7.95
2023-01-03T12:39:56.421Z,8.48
2023-01-03T12:42:38.160Z,8.13
2023-01-03T12:45:07.463Z,8.57
2023-01-03T12:47:42.961Z,8.05
2023-01-03T12:50:22.582Z,9.48
2023-01-03T12:52:57.246Z,7.88
2023-01-03T12:55:34.885Z,9.63
2023-01-03T12:58:23.067Z,8.73
2023-01-03T13:00:58.907Z,7.55
2023-01-03T13:03:38.886Z,11.05
2023-01-03T13:06:15.574Z,8.32
2023-01-03T13:08:49.383Z,8.70
2023-01-03T13:11:26.445Z,8.98
2023-01-03T13:13:55.095Z,8.52
2023-01-03T13:16:39.680Z,9.98
2023-01-03T13:19:24.319Z,12.45
2023-01-03T13:21:53.682Z,7.38
2023-01-03T13:24:45.053Z,8.25
2023-01-03T13:27:17.562Z,6.95
2023-01-03T13:32:15.751Z,10.55
2023-01-03T13:34:42.407Z,15.25
2023-01-03T13:37:10.047Z,9.60
2023-01-03T13:39:41.008Z,7.00
2023-01-03T13:42:20.264Z,10.13
2023-01-03T13:44:46.725Z,8.43
2023-01-03T13:47:24.959Z,7.63
2023-01-03T13:49:54.001Z,8.27
2023-01-03T13:52:40.930Z,6.10
2023-01-03T13:55:40.046Z,9.82
2023-01-03T13:58:31.420Z,6.32
2023-01-03T14:01:05.582Z,10.25
2023-01-03T14:04:02.100Z,8.25
2023-01-03T14:06:48.863Z,10.25
2023-01-03T14:09:38.703Z,7.63
2023-01-03T14:12:40.393Z,8.05
2023-01-03T14:15:25.519Z,8.98
2023-01-03T14:17:56.201Z,9.63
2023-01-03T14:20:24.738Z,5.50
2023-01-03T14:22:52.029Z,8.68
2023-01-03T14:25:39.451Z,8.35
2023-01-03T14:28:26.826Z,7.00
2023-01-03T14:30:56.165Z,8.40
2023-01-03T14:33:24.581Z,9.52
2023-01-03T14:36:14.915Z,5.93
2023-01-03T14:39:01.147Z,8.50
2023-01-03T14:41:38.770Z,7.78
2023-01-03T14:44:12.542Z,10.63
2023-01-03T14:46:50.333Z,9.15
2023-01-03T14:49:21.388Z,8.57
2023-01-03T14:51:47.953Z,8.18
2023-01-03T14:54:18.006Z,7.80
2023-01-03T14:56:45.866Z,8.05
2023-01-03T14:59:16.909Z,7.43
2023-01-03T15:01:44.619Z,11.45
2023-01-03T15:04:14.547Z,7.15
2023-01-03T15:07:08.019Z,11.65
2023-01-03T15:09:36.181Z,6.70
2023-01-03T15:12:04.839Z,7.43
2023-01-03T15:14:36.005Z,9.10
2023-01-03T15:17:06.809Z,6.97
2023-01-03T15:19:34.119Z,8.27
2023-01-03T15:22:09.088Z,9.48
2023-01-03T15:25:05.270Z,7.65
2023-01-03T15:27:33.308Z,9.05
2023-01-03T15:30:29.390Z,7.18
2023-01-03T15:32:58.603Z,5.63
2023-01-03T15:35:37.392Z,8.02
2023-01-03T15:38:08.316Z,7.50
2023-01-03T15:40:34.916Z,5.93
2023-01-03T15:43:23.287Z,11.70
2023-01-03T15:46:22.152Z,7.93
2023-01-03T15:48:54.918Z,7.50
2023-01-03T15:51:21.462Z,8.65
2023-01-03T15:53:47.933Z,7.75
2023-01-03T15:56:22.856Z,7.25
2023-01-03T15:58:50.729Z,6.38
2023-01-03T16:01:18.621Z,9.25
2023-01-03T16:03:46.515Z,8.43
2023-01-03T16:06:13.156Z,10.23
2023-01-03T16:08:40.259Z,9.80
2023-01-03T16:11:15.670Z,12.77
2023-01-03T16:13:54.973Z,5.15
2023-01-03T16:16:36.315Z,10.48
2023-01-03T16:19:04.017Z,8.85
2023-01-03T16:21:31.068Z,6.65
2023-01-03T16:23:57.480Z,9.15
2023-01-03T16:26:23.882Z,7.50
2023-01-03T16:28:50.351Z,7.82
2023-01-03T16:31:19.269Z,9.27
2023-01-03T16:33:48.235Z,7.85
2023-01-03T16:36:38.138Z,7.80
2023-01-03T16:39:06.816Z,10.52
2023-01-03T16:41:33.204Z,8.65
2023-01-03T16:43:59.602Z,7.00
2023-01-03T16:46:26.535Z,10.00
2023-01-03T16:48:54.119Z,8.07
2023-01-03T16:51:24.525Z,6.43
2023-01-03T16:53:51.424Z,10.75
2023-01-03T16:56:18.459Z,11.60
2023-01-03T16:58:45.047Z,8.02
2023-01-03T17:01:12.676Z,8.98
2023-01-03T17:03:42.042Z,10.32
2023-01-03T17:06:38.646Z,9.48
2023-01-03T17:09:15.451Z,11.68
2023-01-03T17:11:41.944Z,7.13
2023-01-03T17:14:15.982Z,9.70
2023-01-03T17:16:42.400Z,7.70
2023-01-03T17:20:01.888Z,12.25
2023-01-03T17:22:23.162Z,7.13
2023-01-03T17:24:51.286Z,10.75
2023-01-03T17:27:21.851Z,7.05
2023-01-03T17:32:19.327Z,12.38
2023-01-03T17:34:46.085Z,6.57
2023-01-03T17:37:17.829Z,12.35
2023-01-03T17:39:45.735Z,7.28
2023-01-03T17:42:16.574Z,10.50
2023-01-03T17:45:04.313Z,8.00
2023-01-03T17:47:49.507Z,9.98
2023-01-03T17:50:15.919Z,11.75
2023-01-03T17:52:43.360Z,10.57
2023-01-03T17:55:23.919Z,8.15
2023-01-03T17:57:50.568Z,7.95
2023-01-03T18:00:25.799Z,9.05
2023-01-03T18:02:54.093Z,8.85
2023-01-03T18:05:27.560Z,8.05
2023-01-03T18:07:56.340Z,11.30
2023-01-03T18:10:30.308Z,7.15
2023-01-03T18:12:56.814Z,8.02
2023-01-03T18:15:23.191Z,6.53
2023-01-03T18:17:49.626Z,8.55
2023-01-03T18:20:18.547Z,8.00
2023-01-03T18:22:45.691Z,10.80
2023-01-03T18:25:21.783Z,9.73
2023-01-03T18:28:00.632Z,10.00
2023-01-03T18:30:27.203Z,12.23
2023-01-03T18:32:53.605Z,7.75
2023-01-03T18:35:29.815Z,8.82
2023-01-03T18:38:00.413Z,9.43
2023-01-03T18:40:29.683Z,9.23
2023-01-03T18:43:09.976Z,11.02
2023-01-03T18:45:38.027Z,8.98
2023-01-03T18:48:04.848Z,10.25
2023-01-03T18:50:31.737Z,7.95
2023-01-03T18:53:04.366Z,8.20
2023-01-03T18:55:33.464Z,7.47
2023-01-03T18:58:06.125Z,9.13
2023-01-03T19:00:32.516Z,8.02
2023-01-03T19:03:00.133Z,9.93
2023-01-03T19:05:26.747Z,9.57
2023-01-03T19:07:53.171Z,9.27
2023-01-03T19:10:27.142Z,8.40
2023-01-03T19:12:55.982Z,13.82
2023-01-03T19:15:25.464Z,10.00
2023-01-03T19:17:52.219Z,10.43
2023-01-03T19:20:23.236Z,8.93
2023-01-03T19:22:53.355Z,10.23
2023-01-03T19:25:22.649Z,8.60
2023-01-03T19:27:50.105Z,9.35
2023-01-03T19:30:37.226Z,11.35
2023-01-03T19:33:05.774Z,11.55
2023-01-03T19:35:32.149Z,8.48
2023-01-03T19:37:58.526Z,7.93
2023-01-03T19:40:27.501Z,8.73
2023-01-03T19:42:55.801Z,7.88
2023-01-03T19:45:28.625Z,9.18
2023-01-03T19:47:56.100Z,12.00
2023-01-03T19:50:25.236Z,5.43
2023-01-03T19:52:53.133Z,5.70
2023-01-03T19:55:21.655Z,8.57
2023-01-03T19:57:49.021Z,6.55
2023-01-03T20:00:17.026Z,5.80
2023-01-03T20:02:43.861Z,7.18
2023-01-03T20:05:19.508Z,5.75
2023-01-03T20:07:47.246Z,6.90
2023-01-03T20:10:37.989Z,7.03
2023-01-03T20:13:05.164Z,6.57
2023-01-03T20:15:41.690Z,7.43
2023-01-03T20:18:25.079Z,4.82
2023-01-03T20:20:53.129Z,7.40
2023-01-03T20:23:19.598Z,4.88
2023-01-03T20:25:46.321Z,4.10
2023-01-03T20:28:29.184Z,3.63
2023-01-03T20:30:59.632Z,7.15
2023-01-03T20:33:27.188Z,4.55
2023-01-03T20:36:17.970Z,4.07
2023-01-03T20:38:45.216Z,6.55
2023-01-03T20:41:13.095Z,6.57
2023-01-03T20:43:39.451Z,7.20
2023-01-03T20:46:06.258Z,3.45
2023-01-03T20:48:32.799Z,4.50
2023-01-03T20:50:59.174Z,4.75
2023-01-03T20:53:26.555Z,4.07
2023-01-03T20:55:53.411Z,4.78
2023-01-03T20:58:24.949Z,5.72
2023-01-03T21:00:54.390Z,4.75
2023-01-03T21:03:23.433Z,4.68
2023-01-03T21:05:50.563Z,9.27
2023-01-03T21:08:35.611Z,5.03
2023-01-03T21:11:02.333Z,7.45
2023-01-03T21:13:29.255Z,6.38
2023-01-03T21:15:56.154Z,4.63
2023-01-03T21:18:22.647Z,5.60
2023-01-03T21:20:49.077Z,8.93
2023-01-03T21:23:17.297Z,6.22
2023-01-03T21:25:43.947Z,6.03
2023-01-03T21:28:11.478Z,3.33
2023-01-03T21:30:38.408Z,4.65
2023-01-03T21:33:05.138Z,5.22
2023-01-03T21:35:31.700Z,4.63
2023-01-03T21:37:58.166Z,5.53
2023-01-03T21:40:29.173Z,3.95
2023-01-03T21:43:03.555Z,5.13
2023-01-03T21:45:30.661Z,5.47
2023-01-03T21:47:57.359Z,5.03
2023-01-03T21:50:24.380Z,4.63
2023-01-03T21:52:51.117Z,7.15
2023-01-03T21:55:17.906Z,10.88
2023-01-03T21:57:44.561Z,5.20
2023-01-03T22:00:11.815Z,6.18
2023-01-03T22:03:00.245Z,6.30
2023-01-03T22:05:27.814Z,6.70
2023-01-03T22:07:54.309Z,7.55
2023-01-03T22:10:21.008Z,4.43
2023-01-03T22:12:50.282Z,4.10
2023-01-03T22:15:16.689Z,4.05
2023-01-03T22:17:43.154Z,7.78
2023-01-03T22:20:12.160Z,6.93
2023-01-03T22:22:39.876Z,4.75
2023-01-03T22:25:08.187Z,6.38
2023-01-03T22:27:35.472Z,3.95
2023-01-03T22:30:06.394Z,4.90
2023-01-03T22:32:33.021Z,5.32
2023-01-03T22:34:59.433Z,6.25
2023-01-03T22:37:26.066Z,3.67
2023-01-03T22:39:52.783Z,6.35
2023-01-03T22:42:19.974Z,6.70
2023-01-03T22:44:46.555Z,5.45
2023-01-03T22:47:13.120Z,5.18
2023-01-03T22:49:39.845Z,8.05
2023-01-03T22:52:06.216Z,4.97
2023-01-03T22:54:33.528Z,5.68
2023-01-03T22:56:59.887Z,5.72
2023-01-03T22:59:26.353Z,7.97
2023-01-03T23:01:52.877Z,7.45
2023-01-03T23:04:19.690Z,6.20
2023-01-03T23:06:46.756Z,3.50
2023-01-03T23:09:13.216Z,7.55
2023-01-03T23:11:58.476Z,4.85
2023-01-03T23:14:25.997Z,9.55
2023-01-03T23:16:53.191Z,3.28
2023-01-03T23:19:21.484Z,4.03
2023-01-03T23:21:47.871Z,5.43
2023-01-03T23:24:16.916Z,4.82
2023-01-03T23:26:43.400Z,4.80
2023-01-03T23:29:10.771Z,5.00
2023-01-03T23:31:37.353Z,5.82
2023-01-03T23:34:03.768Z,6.22
2023-01-03T23:36:30.161Z,6.85
2023-01-03T23:38:56.607Z,5.10
2023-01-03T23:41:23.438Z,3.63
2023-01-03T23:43:49.929Z,6.22
2023-01-03T23:46:18.413Z,5.97
2023-01-03T23:48:44.930Z,4.10
2023-01-03T23:51:11.649Z,3.58
2023-01-03T23:53:39.757Z,6.05
2023-01-03T23:56:11.931Z,4.95
2023-01-03T23:58:38.399Z,9.23
